Glen Dean, Kentucky
Current Conditions -  °F | °C
As of 11:56 AM on Sunday 25 Jan 2015 (Local Time) from KOWB Reporting Station
Light Rain Light Rain  
Wind Chill: 37°   Ceiling: 3700
Heat Index: 43°   Visibility: 10mi
Dew Point: 39°   Wind: 10mph
Humidity: 85%   Direction: 150°SSE
Pressure: 29.63"   Gusts: NA
Location:  37.6217°N, 86.5365°W
Report Text: KOWB 251756Z 15009KT 10SM -RA BKN037 OVC045 06/04 A2963 RMK AO2 58019 60004 T00610038 10061 20033 BKN V SCT P0001 SLP034
Loading
Personal Weather Stations






























Interactive Weather Map New forecast layout! Learn more

10-Day Weather Forecast

Advertisements
Track Severe Weather on mobile